sensor_id;sensor_type;location;lat;lon;timestamp;temperature;humidity
67974;DHT22;54756;51.140;6.952;2022-12-29T00:01:22;9.50;95.10
67974;DHT22;54756;51.140;6.952;2022-12-29T00:03:22;9.50;95.10
67974;DHT22;54756;51.140;6.952;2022-12-29T00:05:23;9.50;95.20
67974;DHT22;54756;51.140;6.952;2022-12-29T00:07:24;9.50;95.30
67974;DHT22;54756;51.140;6.952;2022-12-29T00:09:25;9.50;95.30
67974;DHT22;54756;51.140;6.952;2022-12-29T00:11:27;9.50;95.30
67974;DHT22;54756;51.140;6.952;2022-12-29T00:13:27;9.50;95.40
67974;DHT22;54756;51.140;6.952;2022-12-29T00:15:46;9.50;95.50
67974;DHT22;54756;51.140;6.952;2022-12-29T00:17:47;9.50;95.60
67974;DHT22;54756;51.140;6.952;2022-12-29T00:19:47;9.50;95.90
67974;DHT22;54756;51.140;6.952;2022-12-29T00:22:09;9.50;95.60
67974;DHT22;54756;51.140;6.952;2022-12-29T00:24:28;9.50;95.60
67974;DHT22;54756;51.140;6.952;2022-12-29T00:26:35;9.50;95.60
67974;DHT22;54756;51.140;6.952;2022-12-29T00:28:54;9.50;95.60
67974;DHT22;54756;51.140;6.952;2022-12-29T00:31:13;9.50;95.60
67974;DHT22;54756;51.140;6.952;2022-12-29T00:33:33;9.50;95.60
67974;DHT22;54756;51.140;6.952;2022-12-29T00:35:56;9.50;95.90
67974;DHT22;54756;51.140;6.952;2022-12-29T00:38:02;9.50;95.60
67974;DHT22;54756;51.140;6.952;2022-12-29T00:40:22;9.50;95.60
67974;DHT22;54756;51.140;6.952;2022-12-29T00:42:41;9.50;95.60
67974;DHT22;54756;51.140;6.952;2022-12-29T00:45:00;9.50;95.60
67974;DHT22;54756;51.140;6.952;2022-12-29T00:47:00;9.60;95.70
67974;DHT22;54756;51.140;6.952;2022-12-29T00:49:04;9.60;95.70
67974;DHT22;54756;51.140;6.952;2022-12-29T00:51:23;9.60;95.70
67974;DHT22;54756;51.140;6.952;2022-12-29T00:53:24;9.70;95.70
67974;DHT22;54756;51.140;6.952;2022-12-29T00:55:25;9.70;95.70
67974;DHT22;54756;51.140;6.952;2022-12-29T00:57:25;9.70;95.70
67974;DHT22;54756;51.140;6.952;2022-12-29T00:59:26;9.70;95.60
67974;DHT22;54756;51.140;6.952;2022-12-29T01:01:26;9.70;95.60
67974;DHT22;54756;51.140;6.952;2022-12-29T01:03:27;9.70;95.60
67974;DHT22;54756;51.140;6.952;2022-12-29T01:05:27;9.70;95.60
67974;DHT22;54756;51.140;6.952;2022-12-29T01:07:28;9.80;95.60
67974;DHT22;54756;51.140;6.952;2022-12-29T01:09:28;9.70;95.60
67974;DHT22;54756;51.140;6.952;2022-12-29T01:11:48;9.80;95.60
67974;DHT22;54756;51.140;6.952;2022-12-29T01:13:48;9.90;95.60
67974;DHT22;54756;51.140;6.952;2022-12-29T01:15:50;9.90;95.50
67974;DHT22;54756;51.140;6.952;2022-12-29T01:17:51;9.90;95.50
67974;DHT22;54756;51.140;6.952;2022-12-29T01:19:51;9.90;95.50
67974;DHT22;54756;51.140;6.952;2022-12-29T01:21:52;10.00;94.90
67974;DHT22;54756;51.140;6.952;2022-12-29T01:23:53;10.00;94.90
67974;DHT22;54756;51.140;6.952;2022-12-29T01:25:53;9.90;95.30
67974;DHT22;54756;51.140;6.952;2022-12-29T01:27:54;10.00;94.80
67974;DHT22;54756;51.140;6.952;2022-12-29T01:29:54;10.00;94.80
67974;DHT22;54756;51.140;6.952;2022-12-29T01:31:55;10.00;94.80
67974;DHT22;54756;51.140;6.952;2022-12-29T01:33:55;10.00;94.70
67974;DHT22;54756;51.140;6.952;2022-12-29T01:36:03;10.00;94.70
67974;DHT22;54756;51.140;6.952;2022-12-29T01:38:04;10.00;94.60
67974;DHT22;54756;51.140;6.952;2022-12-29T01:40:05;10.10;94.60
67974;DHT22;54756;51.140;6.952;2022-12-29T01:42:19;10.10;94.50
67974;DHT22;54756;51.140;6.952;2022-12-29T01:46:48;10.20;94.20
67974;DHT22;54756;51.140;6.952;2022-12-29T01:48:52;10.20;93.90
67974;DHT22;54756;51.140;6.952;2022-12-29T01:50:53;10.30;93.90
67974;DHT22;54756;51.140;6.952;2022-12-29T01:53:07;10.30;93.70
67974;DHT22;54756;51.140;6.952;2022-12-29T01:55:10;10.40;93.20
67974;DHT22;54756;51.140;6.952;2022-12-29T01:57:16;10.50;92.80
67974;DHT22;54756;51.140;6.952;2022-12-29T01:59:20;10.60;91.80
67974;DHT22;54756;51.140;6.952;2022-12-29T02:01:22;10.80;91.40
67974;DHT22;54756;51.140;6.952;2022-12-29T02:03:25;10.90;91.20
67974;DHT22;54756;51.140;6.952;2022-12-29T02:05:33;11.00;91.00
67974;DHT22;54756;51.140;6.952;2022-12-29T02:07:37;11.00;90.90
67974;DHT22;54756;51.140;6.952;2022-12-29T02:09:38;11.00;90.70
67974;DHT22;54756;51.140;6.952;2022-12-29T02:11:39;11.10;90.30
67974;DHT22;54756;51.140;6.952;2022-12-29T02:13:40;11.10;90.30
67974;DHT22;54756;51.140;6.952;2022-12-29T02:18:05;11.20;88.30
67974;DHT22;54756;51.140;6.952;2022-12-29T02:20:21;11.30;88.30
67974;DHT22;54756;51.140;6.952;2022-12-29T02:22:53;11.30;87.20
67974;DHT22;54756;51.140;6.952;2022-12-29T02:25:15;11.30;86.40
67974;DHT22;54756;51.140;6.952;2022-12-29T02:35:27;11.60;80.80
67974;DHT22;54756;51.140;6.952;2022-12-29T02:39:35;11.60;80.60
67974;DHT22;54756;51.140;6.952;2022-12-29T02:41:45;11.60;79.70
67974;DHT22;54756;51.140;6.952;2022-12-29T02:43:54;11.60;78.20
67974;DHT22;54756;51.140;6.952;2022-12-29T02:46:15;11.70;78.30
67974;DHT22;54756;51.140;6.952;2022-12-29T02:48:25;11.70;76.70
67974;DHT22;54756;51.140;6.952;2022-12-29T02:50:35;11.80;77.20
67974;DHT22;54756;51.140;6.952;2022-12-29T02:52:49;11.80;76.00
67974;DHT22;54756;51.140;6.952;2022-12-29T02:54:54;11.80;76.60
67974;DHT22;54756;51.140;6.952;2022-12-29T02:56:55;11.80;76.40
67974;DHT22;54756;51.140;6.952;2022-12-29T02:58:55;11.80;77.10
67974;DHT22;54756;51.140;6.952;2022-12-29T03:08:27;11.80;75.60
67974;DHT22;54756;51.140;6.952;2022-12-29T03:10:50;11.80;75.00
67974;DHT22;54756;51.140;6.952;2022-12-29T03:12:58;11.80;75.90
67974;DHT22;54756;51.140;6.952;2022-12-29T03:15:34;11.80;76.10
67974;DHT22;54756;51.140;6.952;2022-12-29T03:18:10;11.80;74.90
67974;DHT22;54756;51.140;6.952;2022-12-29T03:20:18;11.80;75.70
67974;DHT22;54756;51.140;6.952;2022-12-29T03:22:25;11.80;75.50
67974;DHT22;54756;51.140;6.952;2022-12-29T03:24:29;11.70;75.50
67974;DHT22;54756;51.140;6.952;2022-12-29T03:26:31;11.70;75.50
67974;DHT22;54756;51.140;6.952;2022-12-29T03:28:36;11.70;76.30
67974;DHT22;54756;51.140;6.952;2022-12-29T03:30:40;11.70;77.00
67974;DHT22;54756;51.140;6.952;2022-12-29T03:32:55;11.70;76.60
67974;DHT22;54756;51.140;6.952;2022-12-29T03:34:57;11.70;77.00
67974;DHT22;54756;51.140;6.952;2022-12-29T03:37:14;11.70;77.70
67974;DHT22;54756;51.140;6.952;2022-12-29T03:39:17;11.60;78.60
67974;DHT22;54756;51.140;6.952;2022-12-29T03:41:21;11.50;79.10
67974;DHT22;54756;51.140;6.952;2022-12-29T03:43:23;11.40;80.90
67974;DHT22;54756;51.140;6.952;2022-12-29T03:45:24;11.40;81.50
67974;DHT22;54756;51.140;6.952;2022-12-29T03:47:25;11.40;81.90
67974;DHT22;54756;51.140;6.952;2022-12-29T03:49:26;11.40;82.20
67974;DHT22;54756;51.140;6.952;2022-12-29T03:51:26;11.40;82.30
67974;DHT22;54756;51.140;6.952;2022-12-29T03:53:27;11.40;82.60
67974;DHT22;54756;51.140;6.952;2022-12-29T03:55:28;11.40;83.00
67974;DHT22;54756;51.140;6.952;2022-12-29T03:57:28;11.40;83.20
67974;DHT22;54756;51.140;6.952;2022-12-29T03:59:29;11.40;83.20
67974;DHT22;54756;51.140;6.952;2022-12-29T04:01:29;11.30;83.30
67974;DHT22;54756;51.140;6.952;2022-12-29T04:03:30;11.30;83.10
67974;DHT22;54756;51.140;6.952;2022-12-29T04:05:30;11.40;83.40
67974;DHT22;54756;51.140;6.952;2022-12-29T04:07:31;11.40;83.50
67974;DHT22;54756;51.140;6.952;2022-12-29T04:09:32;11.40;83.20
67974;DHT22;54756;51.140;6.952;2022-12-29T04:11:32;11.40;83.20
67974;DHT22;54756;51.140;6.952;2022-12-29T04:13:33;11.40;83.20
67974;DHT22;54756;51.140;6.952;2022-12-29T04:15:34;11.40;83.20
67974;DHT22;54756;51.140;6.952;2022-12-29T04:17:34;11.40;83.20
67974;DHT22;54756;51.140;6.952;2022-12-29T04:19:35;11.40;82.70
67974;DHT22;54756;51.140;6.952;2022-12-29T04:21:36;11.40;82.50
67974;DHT22;54756;51.140;6.952;2022-12-29T04:23:38;11.30;82.20
67974;DHT22;54756;51.140;6.952;2022-12-29T04:25:38;11.40;82.30
67974;DHT22;54756;51.140;6.952;2022-12-29T04:27:39;11.30;81.90
67974;DHT22;54756;51.140;6.952;2022-12-29T04:29:39;11.30;81.90
67974;DHT22;54756;51.140;6.952;2022-12-29T04:31:40;11.30;81.80
67974;DHT22;54756;51.140;6.952;2022-12-29T04:33:40;11.30;82.00
67974;DHT22;54756;51.140;6.952;2022-12-29T04:35:42;11.40;81.90
67974;DHT22;54756;51.140;6.952;2022-12-29T04:37:43;11.40;82.00
67974;DHT22;54756;51.140;6.952;2022-12-29T04:39:44;11.40;81.60
67974;DHT22;54756;51.140;6.952;2022-12-29T04:41:44;11.50;81.60
67974;DHT22;54756;51.140;6.952;2022-12-29T04:43:45;11.50;81.70
67974;DHT22;54756;51.140;6.952;2022-12-29T04:45:46;11.50;81.30
67974;DHT22;54756;51.140;6.952;2022-12-29T04:47:46;11.50;81.50
67974;DHT22;54756;51.140;6.952;2022-12-29T04:49:47;11.50;81.10
67974;DHT22;54756;51.140;6.952;2022-12-29T04:51:47;11.50;80.90
67974;DHT22;54756;51.140;6.952;2022-12-29T04:53:48;11.50;80.30
67974;DHT22;54756;51.140;6.952;2022-12-29T04:55:52;11.50;80.30
67974;DHT22;54756;51.140;6.952;2022-12-29T04:57:53;11.60;78.60
67974;DHT22;54756;51.140;6.952;2022-12-29T04:59:53;11.70;78.70
67974;DHT22;54756;51.140;6.952;2022-12-29T05:01:54;11.70;77.30
67974;DHT22;54756;51.140;6.952;2022-12-29T05:03:54;11.80;76.60
67974;DHT22;54756;51.140;6.952;2022-12-29T05:05:56;11.80;75.60
67974;DHT22;54756;51.140;6.952;2022-12-29T05:07:57;11.80;75.20
67974;DHT22;54756;51.140;6.952;2022-12-29T05:09:57;11.80;74.80
67974;DHT22;54756;51.140;6.952;2022-12-29T05:11:58;11.90;73.50
67974;DHT22;54756;51.140;6.952;2022-12-29T05:13:58;11.90;73.00
67974;DHT22;54756;51.140;6.952;2022-12-29T05:15:59;11.90;72.70
67974;DHT22;54756;51.140;6.952;2022-12-29T05:17:59;11.90;72.70
67974;DHT22;54756;51.140;6.952;2022-12-29T05:20:00;12.00;72.40
67974;DHT22;54756;51.140;6.952;2022-12-29T05:22:01;12.00;71.10
67974;DHT22;54756;51.140;6.952;2022-12-29T05:24:01;12.00;70.20
67974;DHT22;54756;51.140;6.952;2022-12-29T05:26:02;12.10;69.60
67974;DHT22;54756;51.140;6.952;2022-12-29T05:28:03;12.10;68.80
67974;DHT22;54756;51.140;6.952;2022-12-29T05:30:04;12.20;67.60
67974;DHT22;54756;51.140;6.952;2022-12-29T05:32:05;12.20;66.90
67974;DHT22;54756;51.140;6.952;2022-12-29T05:34:05;12.30;66.90
67974;DHT22;54756;51.140;6.952;2022-12-29T05:36:07;12.30;66.30
67974;DHT22;54756;51.140;6.952;2022-12-29T05:38:08;12.30;64.70
67974;DHT22;54756;51.140;6.952;2022-12-29T05:40:09;12.30;64.80
67974;DHT22;54756;51.140;6.952;2022-12-29T05:42:09;12.30;63.60
67974;DHT22;54756;51.140;6.952;2022-12-29T05:44:11;12.30;64.40
67974;DHT22;54756;51.140;6.952;2022-12-29T05:46:12;12.30;63.80
67974;DHT22;54756;51.140;6.952;2022-12-29T05:48:12;12.20;62.50
67974;DHT22;54756;51.140;6.952;2022-12-29T05:50:13;12.20;62.60
67974;DHT22;54756;51.140;6.952;2022-12-29T05:52:13;12.20;62.00
67974;DHT22;54756;51.140;6.952;2022-12-29T05:54:14;12.30;61.60
67974;DHT22;54756;51.140;6.952;2022-12-29T05:56:14;12.30;62.00
67974;DHT22;54756;51.140;6.952;2022-12-29T05:58:16;12.30;62.00
67974;DHT22;54756;51.140;6.952;2022-12-29T06:00:17;12.30;62.60
67974;DHT22;54756;51.140;6.952;2022-12-29T06:02:17;12.30;62.90
67974;DHT22;54756;51.140;6.952;2022-12-29T06:04:18;12.30;63.30
67974;DHT22;54756;51.140;6.952;2022-12-29T06:06:18;12.30;63.20
67974;DHT22;54756;51.140;6.952;2022-12-29T06:08:19;12.30;63.30
67974;DHT22;54756;51.140;6.952;2022-12-29T06:10:19;12.20;62.70
67974;DHT22;54756;51.140;6.952;2022-12-29T06:12:20;12.20;63.20
67974;DHT22;54756;51.140;6.952;2022-12-29T06:14:20;12.20;63.00
67974;DHT22;54756;51.140;6.952;2022-12-29T06:16:21;12.20;63.60
67974;DHT22;54756;51.140;6.952;2022-12-29T06:18:22;12.20;64.10
67974;DHT22;54756;51.140;6.952;2022-12-29T06:20:22;12.10;63.60
67974;DHT22;54756;51.140;6.952;2022-12-29T06:22:23;12.10;63.30
67974;DHT22;54756;51.140;6.952;2022-12-29T06:24:23;12.10;63.60
67974;DHT22;54756;51.140;6.952;2022-12-29T06:26:24;12.00;63.20
67974;DHT22;54756;51.140;6.952;2022-12-29T06:28:25;12.00;63.00
67974;DHT22;54756;51.140;6.952;2022-12-29T06:30:26;12.00;63.10
67974;DHT22;54756;51.140;6.952;2022-12-29T06:32:26;11.90;63.00
67974;DHT22;54756;51.140;6.952;2022-12-29T06:34:27;11.90;62.90
67974;DHT22;54756;51.140;6.952;2022-12-29T06:36:27;11.90;63.40
67974;DHT22;54756;51.140;6.952;2022-12-29T06:38:28;11.90;61.50
67974;DHT22;54756;51.140;6.952;2022-12-29T06:40:28;11.90;61.60
67974;DHT22;54756;51.140;6.952;2022-12-29T06:42:29;11.90;61.60
67974;DHT22;54756;51.140;6.952;2022-12-29T06:44:29;11.90;60.50
67974;DHT22;54756;51.140;6.952;2022-12-29T06:46:30;11.90;59.80
67974;DHT22;54756;51.140;6.952;2022-12-29T06:48:30;11.90;60.00
67974;DHT22;54756;51.140;6.952;2022-12-29T06:50:31;11.90;60.00
67974;DHT22;54756;51.140;6.952;2022-12-29T06:52:32;12.00;60.20
67974;DHT22;54756;51.140;6.952;2022-12-29T06:54:32;12.00;60.00
67974;DHT22;54756;51.140;6.952;2022-12-29T06:56:33;12.00;60.50
67974;DHT22;54756;51.140;6.952;2022-12-29T06:58:33;12.00;60.70
67974;DHT22;54756;51.140;6.952;2022-12-29T07:00:34;12.00;61.20
67974;DHT22;54756;51.140;6.952;2022-12-29T07:02:35;12.00;61.70
67974;DHT22;54756;51.140;6.952;2022-12-29T07:04:35;12.00;61.90
67974;DHT22;54756;51.140;6.952;2022-12-29T07:06:36;12.00;62.50
67974;DHT22;54756;51.140;6.952;2022-12-29T07:08:37;12.00;63.10
67974;DHT22;54756;51.140;6.952;2022-12-29T07:10:38;11.90;63.00
67974;DHT22;54756;51.140;6.952;2022-12-29T07:12:39;12.00;64.00
67974;DHT22;54756;51.140;6.952;2022-12-29T07:14:39;12.00;63.60
67974;DHT22;54756;51.140;6.952;2022-12-29T07:16:40;12.00;64.20
67974;DHT22;54756;51.140;6.952;2022-12-29T07:18:40;11.90;64.70
67974;DHT22;54756;51.140;6.952;2022-12-29T07:20:41;11.90;65.60
67974;DHT22;54756;51.140;6.952;2022-12-29T07:22:41;11.80;66.20
67974;DHT22;54756;51.140;6.952;2022-12-29T07:24:42;11.80;66.10
67974;DHT22;54756;51.140;6.952;2022-12-29T07:26:43;11.70;66.60
67974;DHT22;54756;51.140;6.952;2022-12-29T07:28:44;11.80;66.80
67974;DHT22;54756;51.140;6.952;2022-12-29T07:30:45;11.80;65.70
67974;DHT22;54756;51.140;6.952;2022-12-29T07:32:46;11.80;65.70
67974;DHT22;54756;51.140;6.952;2022-12-29T07:34:47;11.80;63.60
67974;DHT22;54756;51.140;6.952;2022-12-29T07:36:47;11.80;63.30
67974;DHT22;54756;51.140;6.952;2022-12-29T07:38:48;11.80;64.10
67974;DHT22;54756;51.140;6.952;2022-12-29T07:40:48;11.80;63.20
67974;DHT22;54756;51.140;6.952;2022-12-29T07:42:49;11.80;63.40
67974;DHT22;54756;51.140;6.952;2022-12-29T07:44:49;11.80;63.60
67974;DHT22;54756;51.140;6.952;2022-12-29T07:46:50;11.80;63.80
67974;DHT22;54756;51.140;6.952;2022-12-29T07:48:50;11.80;64.30
67974;DHT22;54756;51.140;6.952;2022-12-29T07:50:52;11.80;64.80
67974;DHT22;54756;51.140;6.952;2022-12-29T07:52:53;11.80;64.20
67974;DHT22;54756;51.140;6.952;2022-12-29T07:54:53;11.80;65.00
67974;DHT22;54756;51.140;6.952;2022-12-29T07:56:54;11.80;63.60
67974;DHT22;54756;51.140;6.952;2022-12-29T07:58:54;11.90;64.10
67974;DHT22;54756;51.140;6.952;2022-12-29T08:00:56;11.80;63.70
67974;DHT22;54756;51.140;6.952;2022-12-29T08:02:56;11.80;63.80
67974;DHT22;54756;51.140;6.952;2022-12-29T08:04:57;11.80;62.90
67974;DHT22;54756;51.140;6.952;2022-12-29T08:06:57;11.80;63.40
67974;DHT22;54756;51.140;6.952;2022-12-29T08:08:58;11.70;63.20
67974;DHT22;54756;51.140;6.952;2022-12-29T08:11:00;11.60;63.80
67974;DHT22;54756;51.140;6.952;2022-12-29T08:13:00;11.50;63.90
67974;DHT22;54756;51.140;6.952;2022-12-29T08:15:01;11.50;64.70
67974;DHT22;54756;51.140;6.952;2022-12-29T08:17:02;11.50;65.10
67974;DHT22;54756;51.140;6.952;2022-12-29T08:19:02;11.50;65.60
67974;DHT22;54756;51.140;6.952;2022-12-29T08:21:04;11.50;66.20
67974;DHT22;54756;51.140;6.952;2022-12-29T08:23:05;11.50;66.60
67974;DHT22;54756;51.140;6.952;2022-12-29T08:25:05;11.50;66.80
67974;DHT22;54756;51.140;6.952;2022-12-29T08:27:06;11.50;67.10
67974;DHT22;54756;51.140;6.952;2022-12-29T08:29:07;11.50;67.50
67974;DHT22;54756;51.140;6.952;2022-12-29T08:31:07;11.50;67.50
67974;DHT22;54756;51.140;6.952;2022-12-29T08:33:08;11.50;67.10
67974;DHT22;54756;51.140;6.952;2022-12-29T08:35:09;11.50;67.40
67974;DHT22;54756;51.140;6.952;2022-12-29T08:37:09;11.50;67.40
67974;DHT22;54756;51.140;6.952;2022-12-29T08:39:10;11.50;67.40
67974;DHT22;54756;51.140;6.952;2022-12-29T08:41:10;11.50;67.90
67974;DHT22;54756;51.140;6.952;2022-12-29T08:43:11;11.50;67.60
67974;DHT22;54756;51.140;6.952;2022-12-29T08:45:11;11.50;66.50
67974;DHT22;54756;51.140;6.952;2022-12-29T08:47:12;11.50;66.90
67974;DHT22;54756;51.140;6.952;2022-12-29T08:49:12;11.50;65.80
67974;DHT22;54756;51.140;6.952;2022-12-29T08:51:13;11.50;66.00
67974;DHT22;54756;51.140;6.952;2022-12-29T08:53:14;11.50;65.90
67974;DHT22;54756;51.140;6.952;2022-12-29T08:55:15;11.50;65.10
67974;DHT22;54756;51.140;6.952;2022-12-29T08:57:15;11.50;63.00
67974;DHT22;54756;51.140;6.952;2022-12-29T08:59:16;11.50;61.90
67974;DHT22;54756;51.140;6.952;2022-12-29T09:01:16;11.50;61.50
67974;DHT22;54756;51.140;6.952;2022-12-29T09:03:17;11.60;61.20
67974;DHT22;54756;51.140;6.952;2022-12-29T09:05:17;11.60;60.00
67974;DHT22;54756;51.140;6.952;2022-12-29T09:07:18;11.60;59.60
67974;DHT22;54756;51.140;6.952;2022-12-29T09:09:19;11.70;59.00
67974;DHT22;54756;51.140;6.952;2022-12-29T09:11:22;11.70;58.60
67974;DHT22;54756;51.140;6.952;2022-12-29T09:13:23;11.70;59.10
67974;DHT22;54756;51.140;6.952;2022-12-29T09:15:23;11.60;59.00
67974;DHT22;54756;51.140;6.952;2022-12-29T09:17:24;11.60;58.00
67974;DHT22;54756;51.140;6.952;2022-12-29T09:19:43;11.60;57.10
67974;DHT22;54756;51.140;6.952;2022-12-29T09:21:44;11.70;56.30
67974;DHT22;54756;51.140;6.952;2022-12-29T09:23:44;11.70;56.50
67974;DHT22;54756;51.140;6.952;2022-12-29T09:25:47;11.70;56.50
67974;DHT22;54756;51.140;6.952;2022-12-29T09:27:47;11.80;56.40
67974;DHT22;54756;51.140;6.952;2022-12-29T09:29:48;11.80;55.60
67974;DHT22;54756;51.140;6.952;2022-12-29T09:31:48;12.00;55.20
67974;DHT22;54756;51.140;6.952;2022-12-29T09:33:49;12.10;54.60
67974;DHT22;54756;51.140;6.952;2022-12-29T09:35:57;12.20;54.20
67974;DHT22;54756;51.140;6.952;2022-12-29T09:37:58;12.20;50.60
67974;DHT22;54756;51.140;6.952;2022-12-29T09:39:58;12.20;50.50
67974;DHT22;54756;51.140;6.952;2022-12-29T09:42:13;12.20;51.10
67974;DHT22;54756;51.140;6.952;2022-12-29T09:44:26;12.20;49.30
67974;DHT22;54756;51.140;6.952;2022-12-29T09:46:35;12.20;48.70
67974;DHT22;54756;51.140;6.952;2022-12-29T09:48:41;12.30;47.70
67974;DHT22;54756;51.140;6.952;2022-12-29T09:50:48;12.30;48.20
67974;DHT22;54756;51.140;6.952;2022-12-29T09:52:54;12.30;47.00
67974;DHT22;54756;51.140;6.952;2022-12-29T09:55:21;12.30;45.80
67974;DHT22;54756;51.140;6.952;2022-12-29T09:57:29;12.30;43.60
67974;DHT22;54756;51.140;6.952;2022-12-29T09:59:39;12.40;43.30
67974;DHT22;54756;51.140;6.952;2022-12-29T10:02:04;12.50;44.70
67974;DHT22;54756;51.140;6.952;2022-12-29T10:04:07;12.50;40.00
67974;DHT22;54756;51.140;6.952;2022-12-29T10:06:16;12.50;40.90
67974;DHT22;54756;51.140;6.952;2022-12-29T10:11:23;12.40;40.30
67974;DHT22;54756;51.140;6.952;2022-12-29T10:13:43;12.40;40.60
67974;DHT22;54756;51.140;6.952;2022-12-29T10:19:00;12.40;39.40
67974;DHT22;54756;51.140;6.952;2022-12-29T10:21:14;12.40;42.10
67974;DHT22;54756;51.140;6.952;2022-12-29T10:25:39;12.30;43.70
67974;DHT22;54756;51.140;6.952;2022-12-29T10:27:42;12.30;43.20
67974;DHT22;54756;51.140;6.952;2022-12-29T10:29:54;12.30;42.50
67974;DHT22;54756;51.140;6.952;2022-12-29T10:32:00;12.30;42.20
67974;DHT22;54756;51.140;6.952;2022-12-29T10:34:10;12.30;43.20
67974;DHT22;54756;51.140;6.952;2022-12-29T10:36:28;12.40;41.20
67974;DHT22;54756;51.140;6.952;2022-12-29T10:38:43;12.50;39.20
67974;DHT22;54756;51.140;6.952;2022-12-29T10:42:54;12.50;39.40
67974;DHT22;54756;51.140;6.952;2022-12-29T10:44:56;12.60;39.20
67974;DHT22;54756;51.140;6.952;2022-12-29T10:47:04;12.60;38.70
67974;DHT22;54756;51.140;6.952;2022-12-29T10:49:14;12.70;33.80
67974;DHT22;54756;51.140;6.952;2022-12-29T10:51:32;12.80;34.00
67974;DHT22;54756;51.140;6.952;2022-12-29T10:54:21;12.90;32.40
67974;DHT22;54756;51.140;6.952;2022-12-29T10:58:35;13.10;34.20
67974;DHT22;54756;51.140;6.952;2022-12-29T11:00:36;13.10;32.80
67974;DHT22;54756;51.140;6.952;2022-12-29T11:03:04;13.20;32.60
67974;DHT22;54756;51.140;6.952;2022-12-29T11:05:19;13.40;31.00
67974;DHT22;54756;51.140;6.952;2022-12-29T11:07:22;13.50;30.10
67974;DHT22;54756;51.140;6.952;2022-12-29T11:09:27;13.60;28.80
67974;DHT22;54756;51.140;6.952;2022-12-29T11:11:36;13.70;27.80
67974;DHT22;54756;51.140;6.952;2022-12-29T11:13:55;13.70;27.80
67974;DHT22;54756;51.140;6.952;2022-12-29T11:15:56;13.70;27.20
67974;DHT22;54756;51.140;6.952;2022-12-29T11:17:57;13.80;27.50
67974;DHT22;54756;51.140;6.952;2022-12-29T11:19:59;13.90;28.80
67974;DHT22;54756;51.140;6.952;2022-12-29T11:22:22;13.90;27.00
67974;DHT22;54756;51.140;6.952;2022-12-29T11:24:29;13.80;26.80
67974;DHT22;54756;51.140;6.952;2022-12-29T11:26:33;13.80;27.80
67974;DHT22;54756;51.140;6.952;2022-12-29T11:28:34;13.70;28.10
67974;DHT22;54756;51.140;6.952;2022-12-29T11:30:34;13.70;27.90
67974;DHT22;54756;51.140;6.952;2022-12-29T11:32:35;13.70;26.80
67974;DHT22;54756;51.140;6.952;2022-12-29T11:34:36;13.60;28.30
67974;DHT22;54756;51.140;6.952;2022-12-29T11:36:36;13.60;28.70
67974;DHT22;54756;51.140;6.952;2022-12-29T11:38:41;13.50;27.60
67974;DHT22;54756;51.140;6.952;2022-12-29T11:40:42;13.40;28.50
67974;DHT22;54756;51.140;6.952;2022-12-29T11:42:58;13.30;28.70
67974;DHT22;54756;51.140;6.952;2022-12-29T11:45:20;13.10;29.40
67974;DHT22;54756;51.140;6.952;2022-12-29T11:47:31;13.10;29.70
67974;DHT22;54756;51.140;6.952;2022-12-29T11:49:32;13.00;30.60
67974;DHT22;54756;51.140;6.952;2022-12-29T11:51:39;12.90;30.70
67974;DHT22;54756;51.140;6.952;2022-12-29T11:55:52;12.90;33.50
67974;DHT22;54756;51.140;6.952;2022-12-29T11:57:55;12.80;32.80
67974;DHT22;54756;51.140;6.952;2022-12-29T11:59:59;12.80;34.10
67974;DHT22;54756;51.140;6.952;2022-12-29T12:02:07;12.70;32.30
67974;DHT22;54756;51.140;6.952;2022-12-29T12:04:16;12.70;34.80
67974;DHT22;54756;51.140;6.952;2022-12-29T12:06:20;12.60;33.90
67974;DHT22;54756;51.140;6.952;2022-12-29T12:08:33;12.50;35.40
67974;DHT22;54756;51.140;6.952;2022-12-29T12:10:55;12.50;38.40
67974;DHT22;54756;51.140;6.952;2022-12-29T12:13:29;12.40;38.10
67974;DHT22;54756;51.140;6.952;2022-12-29T12:15:39;12.40;38.10
67974;DHT22;54756;51.140;6.952;2022-12-29T12:20:19;12.30;38.20
67974;DHT22;54756;51.140;6.952;2022-12-29T12:22:40;12.30;37.80
67974;DHT22;54756;51.140;6.952;2022-12-29T12:24:52;12.20;37.50
67974;DHT22;54756;51.140;6.952;2022-12-29T12:29:28;12.20;39.20
67974;DHT22;54756;51.140;6.952;2022-12-29T12:31:47;12.20;40.60
67974;DHT22;54756;51.140;6.952;2022-12-29T12:33:56;12.20;39.70
67974;DHT22;54756;51.140;6.952;2022-12-29T12:41:15;12.20;40.40
67974;DHT22;54756;51.140;6.952;2022-12-29T12:52:43;12.20;39.60
67974;DHT22;54756;51.140;6.952;2022-12-29T12:59:32;12.20;38.90
67974;DHT22;54756;51.140;6.952;2022-12-29T13:02:00;12.10;39.80
67974;DHT22;54756;51.140;6.952;2022-12-29T13:07:08;12.10;39.50
67974;DHT22;54756;51.140;6.952;2022-12-29T13:12:21;12.00;39.20
67974;DHT22;54756;51.140;6.952;2022-12-29T13:19:40;12.10;38.80
67974;DHT22;54756;51.140;6.952;2022-12-29T13:23:56;12.20;36.40
67974;DHT22;54756;51.140;6.952;2022-12-29T13:26:14;12.20;36.70
67974;DHT22;54756;51.140;6.952;2022-12-29T13:28:29;12.30;37.80
67974;DHT22;54756;51.140;6.952;2022-12-29T13:33:19;12.50;33.00
67974;DHT22;54756;51.140;6.952;2022-12-29T13:35:44;12.60;30.40
67974;DHT22;54756;51.140;6.952;2022-12-29T13:37:54;12.70;29.60
67974;DHT22;54756;51.140;6.952;2022-12-29T13:40:03;12.70;30.60
67974;DHT22;54756;51.140;6.952;2022-12-29T13:42:11;12.70;30.00
67974;DHT22;54756;51.140;6.952;2022-12-29T13:44:17;12.60;29.00
67974;DHT22;54756;51.140;6.952;2022-12-29T13:46:23;12.60;26.30
67974;DHT22;54756;51.140;6.952;2022-12-29T13:48:39;12.60;27.10
67974;DHT22;54756;51.140;6.952;2022-12-29T13:50:41;12.50;25.70
67974;DHT22;54756;51.140;6.952;2022-12-29T13:58:11;12.40;28.40
67974;DHT22;54756;51.140;6.952;2022-12-29T14:00:06;12.30;29.10
67974;DHT22;54756;51.140;6.952;2022-12-29T14:04:30;12.10;33.00
67974;DHT22;54756;51.140;6.952;2022-12-29T14:06:35;12.00;34.40
67974;DHT22;54756;51.140;6.952;2022-12-29T14:08:40;11.90;35.70
67974;DHT22;54756;51.140;6.952;2022-12-29T14:10:49;11.80;36.90
67974;DHT22;54756;51.140;6.952;2022-12-29T14:12:50;11.80;38.10
67974;DHT22;54756;51.140;6.952;2022-12-29T14:14:51;11.80;38.60
67974;DHT22;54756;51.140;6.952;2022-12-29T14:16:52;11.80;39.20
67974;DHT22;54756;51.140;6.952;2022-12-29T14:18:54;11.80;38.70
67974;DHT22;54756;51.140;6.952;2022-12-29T14:23:40;11.80;38.80
67974;DHT22;54756;51.140;6.952;2022-12-29T14:25:58;11.70;39.00
67974;DHT22;54756;51.140;6.952;2022-12-29T14:27:58;11.70;36.30
67974;DHT22;54756;51.140;6.952;2022-12-29T14:30:51;11.60;37.10
67974;DHT22;54756;51.140;6.952;2022-12-29T14:33:02;11.60;35.50
67974;DHT22;54756;51.140;6.952;2022-12-29T14:35:41;11.50;34.80
67974;DHT22;54756;51.140;6.952;2022-12-29T14:37:41;11.50;36.10
67974;DHT22;54756;51.140;6.952;2022-12-29T14:39:45;11.40;37.20